sensor_id;sensor_type;location;lat;lon;timestamp;pressure;altitude;pressure_sealevel;temperature;humidity
75938;BME280;64615;32.062;34.834;2022-12-31T00:10:15;101809.97;;;21.23;42.14
75938;BME280;64615;32.062;34.834;2022-12-31T00:27:24;101810.03;;;21.16;42.25
75938;BME280;64615;32.062;34.834;2022-12-31T00:29:50;101807.34;;;21.16;42.20
75938;BME280;64615;32.062;34.834;2022-12-31T00:32:16;101806.28;;;21.17;42.06
75938;BME280;64615;32.062;34.834;2022-12-31T00:34:41;101801.94;;;21.09;42.24
75938;BME280;64615;32.062;34.834;2022-12-31T00:37:07;101810.47;;;21.13;42.21
75938;BME280;64615;32.062;34.834;2022-12-31T00:39:33;101810.47;;;21.13;42.33
75938;BME280;64615;32.062;34.834;2022-12-31T00:41:58;101814.22;;;21.12;42.16
75938;BME280;64615;32.062;34.834;2022-12-31T00:44:24;101810.69;;;21.11;42.24
75938;BME280;64615;32.062;34.834;2022-12-31T00:46:49;101811.72;;;21.10;42.24
75938;BME280;64615;32.062;34.834;2022-12-31T00:49:15;101812.75;;;21.09;42.33
75938;BME280;64615;32.062;34.834;2022-12-31T00:51:41;101803.00;;;21.08;42.37
75938;BME280;64615;32.062;34.834;2022-12-31T00:54:07;101814.06;;;21.07;42.25
75938;BME280;64615;32.062;34.834;2022-12-31T00:56:34;101804.66;;;21.09;41.94
75938;BME280;64615;32.062;34.834;2022-12-31T00:58:59;101804.44;;;21.11;42.30
75938;BME280;64615;32.062;34.834;2022-12-31T01:01:36;101798.81;;;21.12;42.06
75938;BME280;64615;32.062;34.834;2022-12-31T01:04:10;101798.63;;;21.14;42.21
75938;BME280;64615;32.062;34.834;2022-12-31T01:06:37;101799.41;;;21.14;42.19
75938;BME280;64615;32.062;34.834;2022-12-31T04:35:16;101851.91;;;21.13;44.75
75938;BME280;64615;32.062;34.834;2022-12-31T04:37:42;101848.22;;;21.08;44.73
75938;BME280;64615;32.062;34.834;2022-12-31T04:40:08;101851.28;;;21.11;44.38
75938;BME280;64615;32.062;34.834;2022-12-31T04:42:34;101851.06;;;21.13;44.53
75938;BME280;64615;32.062;34.834;2022-12-31T04:45:00;101859.19;;;21.13;44.64
75938;BME280;64615;32.062;34.834;2022-12-31T04:47:26;101859.88;;;21.08;44.53
75938;BME280;64615;32.062;34.834;2022-12-31T04:49:51;101855.88;;;21.11;44.29
75938;BME280;64615;32.062;34.834;2022-12-31T04:52:17;101854.84;;;21.12;44.34
75938;BME280;64615;32.062;34.834;2022-12-31T04:54:42;101854.41;;;21.15;44.34
75938;BME280;64615;32.062;34.834;2022-12-31T04:57:08;101858.34;;;21.19;44.99
75938;BME280;64615;32.062;34.834;2022-12-31T04:59:34;101863.78;;;21.12;45.00
75938;BME280;64615;32.062;34.834;2022-12-31T05:01:59;101863.41;;;21.09;44.88
75938;BME280;64615;32.062;34.834;2022-12-31T05:04:25;101866.31;;;21.07;45.06
75938;BME280;64615;32.062;34.834;2022-12-31T05:06:50;101861.13;;;21.06;44.97
75938;BME280;64615;32.062;34.834;2022-12-31T05:09:16;101864.81;;;21.11;44.53
75938;BME280;64615;32.062;34.834;2022-12-31T05:11:42;101868.78;;;21.16;44.36
75938;BME280;64615;32.062;34.834;2022-12-31T05:14:07;101862.09;;;21.18;44.26
75938;BME280;64615;32.062;34.834;2022-12-31T05:16:33;101868.78;;;21.16;44.60
75938;BME280;64615;32.062;34.834;2022-12-31T05:18:58;101868.16;;;21.13;45.63
75938;BME280;64615;32.062;34.834;2022-12-31T05:21:24;101867.31;;;21.13;44.67
75938;BME280;64615;32.062;34.834;2022-12-31T05:23:50;101868.56;;;21.10;44.88
75938;BME280;64615;32.062;34.834;2022-12-31T05:26:16;101868.00;;;21.08;44.52
75938;BME280;64615;32.062;34.834;2022-12-31T05:28:41;101878.16;;;21.13;44.32
75938;BME280;64615;32.062;34.834;2022-12-31T05:31:07;101872.31;;;21.09;44.41
75938;BME280;64615;32.062;34.834;2022-12-31T05:33:33;101870.03;;;21.13;44.65
75938;BME280;64615;32.062;34.834;2022-12-31T05:35:58;101869.19;;;21.12;44.66
75938;BME280;64615;32.062;34.834;2022-12-31T05:38:25;101870.88;;;21.13;45.12
75938;BME280;64615;32.062;34.834;2022-12-31T05:41:05;101869.03;;;21.14;44.81
75938;BME280;64615;32.062;34.834;2022-12-31T05:43:31;101872.66;;;21.26;49.67
75938;BME280;64615;32.062;34.834;2022-12-31T05:46:03;101873.25;;;21.28;50.68
75938;BME280;64615;32.062;34.834;2022-12-31T05:48:29;101872.88;;;21.25;46.29
75938;BME280;64615;32.062;34.834;2022-12-31T05:50:55;101871.81;;;21.26;45.73
75938;BME280;64615;32.062;34.834;2022-12-31T05:53:20;101877.03;;;21.27;44.70
75938;BME280;64615;32.062;34.834;2022-12-31T05:55:46;101878.56;;;21.41;44.68
75938;BME280;64615;32.062;34.834;2022-12-31T05:58:14;101868.94;;;21.45;44.42
75938;BME280;64615;32.062;34.834;2022-12-31T06:00:40;101876.91;;;21.40;44.50
75938;BME280;64615;32.062;34.834;2022-12-31T06:03:06;101869.31;;;21.49;44.37
75938;BME280;64615;32.062;34.834;2022-12-31T06:05:32;101879.53;;;21.72;43.55
75938;BME280;64615;32.062;34.834;2022-12-31T06:07:58;101876.00;;;21.89;43.01
75938;BME280;64615;32.062;34.834;2022-12-31T06:10:23;101870.69;;;22.01;42.69
75938;BME280;64615;32.062;34.834;2022-12-31T06:12:49;101866.81;;;22.09;42.26
75938;BME280;64615;32.062;34.834;2022-12-31T06:15:15;101872.78;;;22.17;42.02
75938;BME280;64615;32.062;34.834;2022-12-31T06:17:40;101869.16;;;22.23;41.80
75938;BME280;64615;32.062;34.834;2022-12-31T06:20:06;101867.66;;;22.27;41.69
75938;BME280;64615;32.062;34.834;2022-12-31T06:22:32;101865.03;;;21.17;37.68
75938;BME280;64615;32.062;34.834;2022-12-31T06:24:58;101870.91;;;20.44;37.78
75938;BME280;64615;32.062;34.834;2022-12-31T07:07:47;101881.13;;;22.16;36.53
75938;BME280;64615;32.062;34.834;2022-12-31T07:11:13;101863.94;;;21.85;36.66
75938;BME280;64615;32.062;34.834;2022-12-31T07:20:17;101865.38;;;22.24;37.00
75938;BME280;64615;32.062;34.834;2022-12-31T07:23:08;101852.13;;;22.34;37.15
75938;BME280;64615;32.062;34.834;2022-12-31T07:29:43;101856.59;;;22.40;37.14
75938;BME280;64615;32.062;34.834;2022-12-31T07:36:49;101854.78;;;22.53;38.22
75938;BME280;64615;32.062;34.834;2022-12-31T07:42:25;101869.81;;;22.37;37.25
75938;BME280;64615;32.062;34.834;2022-12-31T07:48:25;101850.94;;;21.94;36.41
75938;BME280;64615;32.062;34.834;2022-12-31T07:51:17;101845.06;;;21.97;37.06
75938;BME280;64615;32.062;34.834;2022-12-31T07:54:08;101850.78;;;22.07;37.32
75938;BME280;64615;32.062;34.834;2022-12-31T10:15:45;101689.06;;;22.24;44.30
75938;BME280;64615;32.062;34.834;2022-12-31T10:19:02;101674.56;;;22.19;44.09
75938;BME280;64615;32.062;34.834;2022-12-31T11:37:31;101614.03;;;21.95;42.53
75938;BME280;64615;32.062;34.834;2022-12-31T12:17:00;101613.63;;;21.91;42.48
75938;BME280;64615;32.062;34.834;2022-12-31T12:19:30;101622.81;;;21.90;42.34
75938;BME280;64615;32.062;34.834;2022-12-31T12:21:56;101613.25;;;21.88;42.40
75938;BME280;64615;32.062;34.834;2022-12-31T12:24:28;101610.19;;;21.84;42.13
75938;BME280;64615;32.062;34.834;2022-12-31T12:26:56;101617.03;;;21.87;42.22
75938;BME280;64615;32.062;34.834;2022-12-31T12:29:31;101612.44;;;21.87;42.36
75938;BME280;64615;32.062;34.834;2022-12-31T12:32:13;101614.56;;;21.85;42.23
75938;BME280;64615;32.062;34.834;2022-12-31T12:34:40;101621.03;;;21.84;42.12
75938;BME280;64615;32.062;34.834;2022-12-31T12:40:01;101621.50;;;21.81;42.37
75938;BME280;64615;32.062;34.834;2022-12-31T12:42:31;101615.47;;;21.79;42.18
75938;BME280;64615;32.062;34.834;2022-12-31T12:45:05;101614.44;;;21.80;42.23
75938;BME280;64615;32.062;34.834;2022-12-31T12:47:32;101606.28;;;21.80;42.18
75938;BME280;64615;32.062;34.834;2022-12-31T12:49:58;101611.50;;;21.82;42.20
75938;BME280;64615;32.062;34.834;2022-12-31T13:23:04;101634.66;;;21.66;42.28
75938;BME280;64615;32.062;34.834;2022-12-31T13:26:51;101634.41;;;21.68;42.46
75938;BME280;64615;32.062;34.834;2022-12-31T13:29:18;101632.53;;;21.68;42.15
75938;BME280;64615;32.062;34.834;2022-12-31T13:32:17;101629.81;;;21.68;42.38
75938;BME280;64615;32.062;34.834;2022-12-31T13:35:38;101631.13;;;21.66;42.19
75938;BME280;64615;32.062;34.834;2022-12-31T13:38:45;101627.78;;;21.64;42.20
75938;BME280;64615;32.062;34.834;2022-12-31T13:41:44;101629.44;;;21.65;42.27
75938;BME280;64615;32.062;34.834;2022-12-31T13:44:50;101631.47;;;21.69;42.27
75938;BME280;64615;32.062;34.834;2022-12-31T13:47:45;101634.03;;;21.64;42.43
75938;BME280;64615;32.062;34.834;2022-12-31T13:53:47;101634.53;;;21.61;42.13
75938;BME280;64615;32.062;34.834;2022-12-31T13:56:41;101645.78;;;21.58;42.31
75938;BME280;64615;32.062;34.834;2022-12-31T13:59:37;101645.06;;;21.81;43.27
75938;BME280;64615;32.062;34.834;2022-12-31T15:58:10;101778.19;;;21.54;42.83
75938;BME280;64615;32.062;34.834;2022-12-31T16:03:28;101780.75;;;21.49;43.30
75938;BME280;64615;32.062;34.834;2022-12-31T16:06:03;101773.22;;;21.51;43.30
75938;BME280;64615;32.062;34.834;2022-12-31T16:08:33;101784.88;;;21.52;43.07
75938;BME280;64615;32.062;34.834;2022-12-31T16:10:59;101789.72;;;21.50;43.68
75938;BME280;64615;32.062;34.834;2022-12-31T16:13:26;101785.56;;;21.47;43.41
75938;BME280;64615;32.062;34.834;2022-12-31T16:16:05;101786.44;;;21.41;43.21
75938;BME280;64615;32.062;34.834;2022-12-31T16:18:42;101787.28;;;21.42;43.34
75938;BME280;64615;32.062;34.834;2022-12-31T16:21:46;101784.97;;;21.45;43.67
75938;BME280;64615;32.062;34.834;2022-12-31T16:24:31;101787.44;;;21.47;43.13
75938;BME280;64615;32.062;34.834;2022-12-31T16:27:01;101791.81;;;21.48;43.77
75938;BME280;64615;32.062;34.834;2022-12-31T16:29:27;101781.19;;;21.46;43.90
75938;BME280;64615;32.062;34.834;2022-12-31T16:31:55;101793.09;;;21.45;43.48
75938;BME280;64615;32.062;34.834;2022-12-31T16:34:25;101794.97;;;21.45;43.65
75938;BME280;64615;32.062;34.834;2022-12-31T16:37:02;101796.03;;;21.44;43.87
75938;BME280;64615;32.062;34.834;2022-12-31T16:39:36;101793.09;;;21.45;44.32
75938;BME280;64615;32.062;34.834;2022-12-31T16:42:29;101804.53;;;21.47;44.72
75938;BME280;64615;32.062;34.834;2022-12-31T16:44:56;101798.53;;;21.45;43.97
75938;BME280;64615;32.062;34.834;2022-12-31T16:49:57;101798.88;;;21.49;44.70
75938;BME280;64615;32.062;34.834;2022-12-31T16:52:31;101802.59;;;21.54;45.78
75938;BME280;64615;32.062;34.834;2022-12-31T16:54:58;101802.94;;;21.58;45.15
75938;BME280;64615;32.062;34.834;2022-12-31T16:57:27;101805.13;;;21.49;45.55
75938;BME280;64615;32.062;34.834;2022-12-31T16:59:59;101803.00;;;21.51;45.45
75938;BME280;64615;32.062;34.834;2022-12-31T17:02:33;101799.25;;;21.52;45.58
75938;BME280;64615;32.062;34.834;2022-12-31T17:05:01;101798.00;;;21.55;46.05
75938;BME280;64615;32.062;34.834;2022-12-31T17:12:35;101811.13;;;21.51;45.61
75938;BME280;64615;32.062;34.834;2022-12-31T17:15:05;101818.75;;;21.43;45.57
75938;BME280;64615;32.062;34.834;2022-12-31T17:17:34;101825.66;;;21.39;45.09
75938;BME280;64615;32.062;34.834;2022-12-31T17:20:05;101821.75;;;21.35;44.81
75938;BME280;64615;32.062;34.834;2022-12-31T17:22:40;101817.97;;;21.36;44.48
75938;BME280;64615;32.062;34.834;2022-12-31T17:25:24;101815.19;;;21.42;43.98
75938;BME280;64615;32.062;34.834;2022-12-31T18:26:19;101844.44;;;21.77;43.61
75938;BME280;64615;32.062;34.834;2022-12-31T18:28:46;101842.16;;;21.74;43.56
75938;BME280;64615;32.062;34.834;2022-12-31T18:31:18;101844.06;;;21.73;43.42
75938;BME280;64615;32.062;34.834;2022-12-31T18:33:45;101840.16;;;21.69;43.50
75938;BME280;64615;32.062;34.834;2022-12-31T18:36:16;101831.41;;;21.67;43.47
75938;BME280;64615;32.062;34.834;2022-12-31T18:38:42;101840.34;;;21.68;43.67
75938;BME280;64615;32.062;34.834;2022-12-31T18:41:16;101835.41;;;21.65;43.68
75938;BME280;64615;32.062;34.834;2022-12-31T18:43:42;101834.78;;;21.63;43.66
75938;BME280;64615;32.062;34.834;2022-12-31T18:46:16;101842.09;;;21.62;43.83
75938;BME280;64615;32.062;34.834;2022-12-31T18:48:42;101844.44;;;21.59;43.61
75938;BME280;64615;32.062;34.834;2022-12-31T18:51:20;101842.53;;;21.59;43.83
75938;BME280;64615;32.062;34.834;2022-12-31T18:53:47;101841.25;;;21.62;43.75
75938;BME280;64615;32.062;34.834;2022-12-31T18:56:18;101838.38;;;21.56;43.61
75938;BME280;64615;32.062;34.834;2022-12-31T18:58:45;101833.59;;;21.59;43.86
75938;BME280;64615;32.062;34.834;2022-12-31T19:03:45;101833.44;;;21.53;43.80
75938;BME280;64615;32.062;34.834;2022-12-31T19:06:11;101835.78;;;21.50;43.71
75938;BME280;64615;32.062;34.834;2022-12-31T19:08:37;101841.03;;;21.45;43.26
75938;BME280;64615;32.062;34.834;2022-12-31T19:11:02;101836.19;;;21.47;43.03
75938;BME280;64615;32.062;34.834;2022-12-31T19:13:28;101834.31;;;21.47;43.10
75938;BME280;64615;32.062;34.834;2022-12-31T19:15:54;101826.41;;;21.46;42.97
75938;BME280;64615;32.062;34.834;2022-12-31T19:18:20;101826.41;;;21.46;43.35
75938;BME280;64615;32.062;34.834;2022-12-31T19:20:46;101827.25;;;21.46;43.27
75938;BME280;64615;32.062;34.834;2022-12-31T19:47:46;101830.25;;;21.38;43.65
75938;BME280;64615;32.062;34.834;2022-12-31T19:50:14;101827.53;;;21.38;43.91
75938;BME280;64615;32.062;34.834;2022-12-31T19:52:41;101822.97;;;21.39;43.74
75938;BME280;64615;32.062;34.834;2022-12-31T19:55:10;101826.50;;;21.39;43.62
75938;BME280;64615;32.062;34.834;2022-12-31T19:57:36;101826.50;;;21.39;43.72
75938;BME280;64615;32.062;34.834;2022-12-31T20:00:02;101825.06;;;21.37;43.96
75938;BME280;64615;32.062;34.834;2022-12-31T20:02:28;101827.75;;;21.37;44.03
75938;BME280;64615;32.062;34.834;2022-12-31T20:04:54;101828.00;;;21.35;43.90
75938;BME280;64615;32.062;34.834;2022-12-31T20:07:19;101825.50;;;21.34;43.96
75938;BME280;64615;32.062;34.834;2022-12-31T20:09:45;101817.59;;;21.32;43.74
75938;BME280;64615;32.062;34.834;2022-12-31T20:12:10;101822.19;;;21.32;44.05
75938;BME280;64615;32.062;34.834;2022-12-31T20:14:36;101824.88;;;21.32;43.91
75938;BME280;64615;32.062;34.834;2022-12-31T20:17:02;101816.19;;;21.30;44.13
75938;BME280;64615;32.062;34.834;2022-12-31T20:19:27;101809.94;;;21.29;43.76
75938;BME280;64615;32.062;34.834;2022-12-31T20:21:53;101809.31;;;21.27;43.94
75938;BME280;64615;32.062;34.834;2022-12-31T20:24:18;101813.31;;;21.25;44.11
75938;BME280;64615;32.062;34.834;2022-12-31T20:26:44;101811.41;;;21.25;44.02
75938;BME280;64615;32.062;34.834;2022-12-31T20:29:10;101808.94;;;21.24;44.09
75938;BME280;64615;32.062;34.834;2022-12-31T20:31:35;101796.22;;;21.24;43.96
75938;BME280;64615;32.062;34.834;2022-12-31T20:34:01;101805.97;;;21.25;44.01
75938;BME280;64615;32.062;34.834;2022-12-31T21:09:36;101772.00;;;21.47;43.47
75938;BME280;64615;32.062;34.834;2022-12-31T21:12:01;101777.22;;;21.49;43.72
75938;BME280;64615;32.062;34.834;2022-12-31T21:14:46;101775.69;;;21.53;43.66
75938;BME280;64615;32.062;34.834;2022-12-31T21:17:11;101762.53;;;21.56;43.36
75938;BME280;64615;32.062;34.834;2022-12-31T21:19:37;101769.59;;;21.58;43.46
75938;BME280;64615;32.062;34.834;2022-12-31T21:22:02;101756.31;;;21.56;43.46
75938;BME280;64615;32.062;34.834;2022-12-31T21:24:28;101757.34;;;21.55;43.51
75938;BME280;64615;32.062;34.834;2022-12-31T21:26:54;101761.56;;;21.51;43.53
75938;BME280;64615;32.062;34.834;2022-12-31T21:29:20;101767.22;;;21.49;43.50
75938;BME280;64615;32.062;34.834;2022-12-31T21:31:45;101761.78;;;21.49;43.41
75938;BME280;64615;32.062;34.834;2022-12-31T22:21:41;101717.53;;;21.37;43.74
75938;BME280;64615;32.062;34.834;2022-12-31T22:24:07;101719.41;;;21.37;43.69
75938;BME280;64615;32.062;34.834;2022-12-31T22:26:33;101718.59;;;21.36;43.78
75938;BME280;64615;32.062;34.834;2022-12-31T22:28:58;101716.13;;;21.35;43.55
75938;BME280;64615;32.062;34.834;2022-12-31T22:31:25;101721.53;;;21.35;43.60
75938;BME280;64615;32.062;34.834;2022-12-31T22:33:53;101710.09;;;21.33;43.68
75938;BME280;64615;32.062;34.834;2022-12-31T22:36:20;101704.06;;;21.31;43.49
75938;BME280;64615;32.062;34.834;2022-12-31T22:38:47;101699.47;;;21.31;43.75
75938;BME280;64615;32.062;34.834;2022-12-31T22:41:18;101706.53;;;21.32;43.52
75938;BME280;64615;32.062;34.834;2022-12-31T22:43:49;101708.44;;;21.32;43.83
75938;BME280;64615;32.062;34.834;2022-12-31T22:48:46;101700.97;;;21.27;43.67
75938;BME280;64615;32.062;34.834;2022-12-31T22:51:12;101709.72;;;21.29;43.64
75938;BME280;64615;32.062;34.834;2022-12-31T22:53:38;101705.00;;;21.25;43.69
75938;BME280;64615;32.062;34.834;2022-12-31T22:56:06;101713.31;;;21.23;43.87
75938;BME280;64615;32.062;34.834;2022-12-31T22:58:32;101715.56;;;21.26;43.93
75938;BME280;64615;32.062;34.834;2022-12-31T23:00:58;101713.25;;;21.30;43.86
75938;BME280;64615;32.062;34.834;2022-12-31T23:03:24;101714.06;;;21.30;43.91
75938;BME280;64615;32.062;34.834;2022-12-31T23:05:51;101715.97;;;21.30;44.09
75938;BME280;64615;32.062;34.834;2022-12-31T23:08:18;101709.72;;;21.29;44.09
75938;BME280;64615;32.062;34.834;2022-12-31T23:10:48;101707.84;;;21.30;43.71
75938;BME280;64615;32.062;34.834;2022-12-31T23:13:38;101713.63;;;21.33;44.43
75938;BME280;64615;32.062;34.834;2022-12-31T23:16:23;101707.84;;;21.30;44.02
75938;BME280;64615;32.062;34.834;2022-12-31T23:34:16;101694.88;;;21.13;43.97
75938;BME280;64615;32.062;34.834;2022-12-31T23:44:29;101704.25;;;21.11;43.75
75938;BME280;64615;32.062;34.834;2022-12-31T23:47:20;101693.06;;;21.07;43.81
75938;BME280;64615;32.062;34.834;2022-12-31T23:49:46;101685.97;;;21.06;43.85
75938;BME280;64615;32.062;34.834;2022-12-31T23:52:12;101685.97;;;21.06;43.76
75938;BME280;64615;32.062;34.834;2022-12-31T23:54:37;101678.06;;;21.05;44.06
75938;BME280;64615;32.062;34.834;2022-12-31T23:57:03;101682.66;;;21.04;43.74
75938;BME280;64615;32.062;34.834;2022-12-31T23:59:28;101685.34;;;21.04;43.85
